Time;durP1;ratioP1;P1;durP2;ratioP2;P2;SDS_P1;SDS_P2;PMS_P1;PMS_P2;Temp;Humidity;BMP_temperature;BMP_pressure;BME280_temperature;BME280_humidity;BME280_pressure;Samples;Min_cycle;Max_cycle;Signal;HPM_P1;HPM_P2
2024/01/05 00:01:02;;;;;;;19.75;9.10;;;;;;;4.28;100.00;100404.88;5070454;28;20087;-68
2024/01/05 00:03:27;;;;;;;22.55;9.30;;;;;;;4.40;100.00;100403.22;5069648;28;20044;-68
2024/01/05 00:05:52;;;;;;;22.85;9.05;;;;;;;4.51;100.00;100400.72;5070252;28;20054;-68
2024/01/05 00:08:18;;;;;;;21.20;9.52;;;;;;;4.52;100.00;100393.81;5070152;28;20400;-68
2024/01/05 00:10:43;;;;;;;18.60;7.63;;;;;;;4.59;100.00;100392.44;5067124;28;20029;-68
2024/01/05 00:13:09;;;;;;;16.85;6.65;;;;;;;4.68;100.00;100384.06;5068514;28;20033;-68
2024/01/05 00:15:34;;;;;;;16.48;7.65;;;;;;;4.77;100.00;100382.56;5069689;28;20032;-68
2024/01/05 00:18:00;;;;;;;15.80;7.32;;;;;;;4.85;100.00;100382.84;5069946;28;20048;-68
2024/01/05 00:20:25;;;;;;;21.80;7.88;;;;;;;4.88;100.00;100387.78;5069479;28;20024;-68
2024/01/05 00:22:51;;;;;;;22.85;8.18;;;;;;;4.90;100.00;100391.06;5070513;28;20028;-68
2024/01/05 00:25:21;;;;;;;20.65;6.63;;;;;;;4.96;100.00;100400.97;5067988;28;20090;-68
2024/01/05 00:27:47;;;;;;;15.20;6.88;;;;;;;5.02;100.00;100397.13;5072051;28;20127;-68
2024/01/05 00:30:13;;;;;;;24.58;8.15;;;;;;;5.04;100.00;100400.41;5068289;28;20075;-68
2024/01/05 00:32:38;;;;;;;21.77;8.45;;;;;;;5.06;100.00;100401.13;5068213;28;20486;-67
2024/01/05 00:35:04;;;;;;;23.38;8.32;;;;;;;5.10;100.00;100399.97;5070588;28;20052;-68
2024/01/05 00:37:30;;;;;;;16.52;7.03;;;;;;;5.12;100.00;100400.69;5073041;28;20044;-68
2024/01/05 00:39:55;;;;;;;20.88;7.90;;;;;;;5.13;100.00;100397.19;5070433;28;20028;-68
2024/01/05 00:42:21;;;;;;;23.88;7.60;;;;;;;5.11;100.00;100399.03;5067425;28;20037;-68
2024/01/05 00:44:46;;;;;;;17.20;7.63;;;;;;;5.11;100.00;100394.69;5066046;28;20056;-68
2024/01/05 00:47:12;;;;;;;20.65;6.63;;;;;;;5.12;100.00;100396.34;5072670;28;20036;-69
2024/01/05 00:49:37;;;;;;;15.93;7.20;;;;;;;5.14;100.00;100397.06;5068708;28;20131;-68
2024/01/05 00:52:03;;;;;;;17.58;7.30;;;;;;;5.11;100.00;100399.88;5069548;28;20036;-68
2024/01/05 00:54:29;;;;;;;16.90;5.88;;;;;;;5.15;100.00;100410.81;5068876;28;20074;-68
2024/01/05 00:56:54;;;;;;;18.80;8.20;;;;;;;5.17;100.00;100408.94;5068493;28;20028;-68
2024/01/05 00:59:20;;;;;;;16.45;7.22;;;;;;;5.18;100.00;100402.84;5069847;28;20028;-68
2024/01/05 01:01:46;;;;;;;17.75;7.35;;;;;;;5.18;100.00;100398.50;5068558;28;20066;-68
2024/01/05 01:04:11;;;;;;;12.90;5.57;;;;;;;5.18;100.00;100388.16;5069142;28;20047;-68
2024/01/05 01:06:36;;;;;;;22.80;7.50;;;;;;;5.22;100.00;100388.72;5068866;28;20089;-68
2024/01/05 01:09:02;;;;;;;20.52;7.97;;;;;;;5.22;100.00;100374.06;5068217;28;20157;-68
2024/01/05 01:11:28;;;;;;;20.27;6.90;;;;;;;5.24;100.00;100371.38;5067096;28;20089;-68
2024/01/05 01:13:53;;;;;;;15.98;7.45;;;;;;;5.27;100.00;100374.53;5066336;28;20069;-68
2024/01/05 01:16:19;;;;;;;18.23;7.22;;;;;;;5.31;100.00;100375.16;5069036;28;20115;-68
2024/01/05 01:18:44;;;;;;;22.02;7.15;;;;;;;5.36;100.00;100365.31;5068040;28;20029;-68
2024/01/05 01:21:10;;;;;;;16.75;8.02;;;;;;;5.39;100.00;100356.50;5069637;28;20043;-68
2024/01/05 01:23:35;;;;;;;16.10;6.30;;;;;;;5.36;100.00;100361.88;5069247;28;20036;-69
2024/01/05 01:26:01;;;;;;;15.25;6.97;;;;;;;5.34;100.00;100351.66;5067529;28;20028;-69
2024/01/05 01:28:26;;;;;;;15.43;6.93;;;;;;;5.39;100.00;100339.25;5067938;28;20042;-68
2024/01/05 01:30:52;;;;;;;16.80;6.28;;;;;;;5.46;100.00;100340.44;5069049;28;20040;-68
2024/01/05 01:33:17;;;;;;;15.82;7.70;;;;;;;5.53;100.00;100346.78;5068948;28;20421;-68
2024/01/05 01:35:43;;;;;;;19.65;7.53;;;;;;;5.55;100.00;100338.91;5068203;28;20039;-68
2024/01/05 01:38:08;;;;;;;18.85;7.75;;;;;;;5.57;100.00;100343.03;5069423;28;20081;-68
2024/01/05 01:40:34;;;;;;;12.52;6.70;;;;;;;5.57;100.00;100330.13;5067764;28;20024;-68
2024/01/05 01:42:59;;;;;;;18.05;6.25;;;;;;;5.56;100.00;100320.72;5067326;28;20504;-68
2024/01/05 01:45:25;;;;;;;17.13;6.80;;;;;;;5.56;100.00;100328.47;5067995;28;20032;-68
2024/01/05 01:47:51;;;;;;;17.77;7.10;;;;;;;5.58;100.00;100329.19;5067155;28;20495;-68
2024/01/05 01:50:18;;;;;;;16.02;6.10;;;;;;;5.60;100.00;100319.53;5068579;28;20020;-67
2024/01/05 01:52:47;;;;;;;14.95;6.45;;;;;;;5.61;100.00;100316.03;5067665;28;20118;-68
2024/01/05 01:55:15;;;;;;;18.50;6.53;;;;;;;5.60;100.00;100311.78;5067825;28;20385;-68
2024/01/05 01:57:40;;;;;;;15.23;6.05;;;;;;;5.62;100.00;100303.94;5067985;28;20105;-67
2024/01/05 02:00:07;;;;;;;16.95;6.70;;;;;;;5.66;100.00;100302.75;5066832;28;20036;-68
2024/01/05 02:02:34;;;;;;;17.13;6.78;;;;;;;5.67;100.00;100299.22;5068015;28;20032;-67
2024/01/05 02:05:00;;;;;;;13.50;6.90;;;;;;;5.65;100.00;100307.09;5067543;28;20044;-68
2024/01/05 02:07:25;;;;;;;19.73;8.05;;;;;;;5.67;100.00;100301.81;5068271;28;20102;-68
2024/01/05 02:09:51;;;;;;;15.45;7.20;;;;;;;5.73;100.00;100313.41;5067567;28;20028;-67
2024/01/05 02:12:18;;;;;;;17.65;7.50;;;;;;;5.79;100.00;100308.59;5068353;28;20066;-68
2024/01/05 02:14:44;;;;;;;23.35;8.13;;;;;;;5.80;100.00;100309.44;5063872;28;20120;-68
2024/01/05 02:17:30;;;;;;;19.08;9.23;;;;;;;5.72;100.00;100312.59;5072620;28;20040;-69
2024/01/05 02:19:56;;;;;;;22.42;9.65;;;;;;;5.65;100.00;100309.69;5065116;28;20124;-68
2024/01/05 02:22:22;;;;;;;26.50;10.23;;;;;;;5.57;100.00;100311.19;5066572;28;20473;-68
2024/01/05 02:24:49;;;;;;;21.45;8.57;;;;;;;5.50;100.00;100307.44;5064182;28;20039;-68
2024/01/05 02:27:14;;;;;;;18.48;8.60;;;;;;;5.46;100.00;100306.84;5068926;28;20024;-68
2024/01/05 02:29:40;;;;;;;20.20;8.93;;;;;;;5.45;100.00;100312.94;5067343;28;20401;-68
2024/01/05 02:32:06;;;;;;;21.15;9.43;;;;;;;5.42;100.00;100318.34;5067710;28;20075;-69
2024/01/05 02:34:31;;;;;;;19.90;8.55;;;;;;;5.41;100.00;100313.28;5067690;28;20214;-68
2024/01/05 02:36:57;;;;;;;19.65;9.07;;;;;;;5.43;100.00;100312.22;5069832;28;20450;-68
2024/01/05 02:39:22;;;;;;;16.23;7.43;;;;;;;5.45;100.00;100310.34;5070430;28;20525;-68
2024/01/05 02:41:48;;;;;;;26.60;9.63;;;;;;;5.47;100.00;100307.66;5070705;28;20028;-68
2024/01/05 02:44:13;;;;;;;21.52;8.43;;;;;;;5.45;100.00;100300.03;5072237;28;20032;-68
2024/01/05 02:46:38;;;;;;;18.50;7.80;;;;;;;5.44;100.00;100310.47;5069397;28;20077;-67
2024/01/05 02:49:04;;;;;;;17.27;8.15;;;;;;;5.43;100.00;100307.06;5073846;28;20028;-68
2024/01/05 02:51:29;;;;;;;19.13;7.57;;;;;;;5.43;100.00;100306.25;5071466;28;20446;-69
2024/01/05 02:53:55;;;;;;;17.85;6.93;;;;;;;5.44;100.00;100298.38;5070680;28;20474;-68
2024/01/05 02:56:23;;;;;;;16.45;7.43;;;;;;;5.53;100.00;100296.88;5069850;28;20071;-68
2024/01/05 02:58:50;;;;;;;20.85;7.88;;;;;;;5.66;100.00;100293.25;5067160;28;20047;-67
2024/01/05 03:01:16;;;;;;;15.65;6.28;;;;;;;5.82;100.00;100284.28;5069007;28;20043;-68
2024/01/05 03:03:47;;;;;;;27.42;8.63;;;;;;;6.00;100.00;100280.31;5067877;28;20482;-67
2024/01/05 03:06:16;;;;;;;15.80;7.57;;;;;;;6.05;100.00;100279.94;5067691;28;20042;-68
2024/01/05 03:08:42;;;;;;;19.23;7.78;;;;;;;6.11;100.00;100279.47;5068516;28;20028;-68
2024/01/05 03:11:07;;;;;;;18.55;7.60;;;;;;;6.14;100.00;100274.88;5070718;28;20040;-68
2024/01/05 03:13:33;;;;;;;13.40;6.43;;;;;;;6.13;100.00;100278.41;5066605;28;20453;-68
2024/01/05 03:15:58;;;;;;;15.18;6.40;;;;;;;6.09;100.00;100284.78;5068112;28;20112;-68
2024/01/05 03:18:24;;;;;;;18.02;6.43;;;;;;;6.04;100.00;100276.53;5070411;28;20059;-69
2024/01/05 03:20:49;;;;;;;15.23;5.90;;;;;;;6.03;100.00;100280.06;5071862;28;20025;-68
2024/01/05 03:23:15;;;;;;;19.20;6.97;;;;;;;6.02;100.00;100270.66;5071241;28;20042;-68
2024/01/05 03:25:41;;;;;;;16.15;6.20;;;;;;;6.03;100.00;100253.38;5068775;28;20032;-68
2024/01/05 03:28:07;;;;;;;16.65;6.38;;;;;;;6.04;100.00;100261.03;5061080;28;20032;-68
2024/01/05 03:30:32;;;;;;;17.05;7.72;;;;;;;6.07;100.00;100255.63;5062381;28;20378;-68
2024/01/05 03:32:58;;;;;;;15.57;6.10;;;;;;;6.08;100.00;100246.91;5069352;28;20489;-68
2024/01/05 03:35:23;;;;;;;19.63;7.30;;;;;;;6.07;100.00;100240.09;5068701;28;20545;-68
2024/01/05 03:37:49;;;;;;;11.55;5.97;;;;;;;6.06;100.00;100233.28;5062340;28;20039;-68
2024/01/05 03:40:15;;;;;;;18.85;7.78;;;;;;;6.09;100.00;100227.88;5067759;28;20710;-68
2024/01/05 03:42:41;;;;;;;13.85;6.78;;;;;;;6.10;100.00;100224.34;5067084;28;20028;-67
2024/01/05 03:45:07;;;;;;;11.35;6.13;;;;;;;6.14;100.00;100217.97;5067520;28;20138;-68
2024/01/05 03:47:33;;;;;;;19.63;8.00;;;;;;;6.23;100.00;100213.81;5068114;28;20569;-68
2024/01/05 03:49:58;;;;;;;14.50;6.90;;;;;;;6.30;100.00;100209.78;5070938;28;20115;-69
2024/01/05 03:52:23;;;;;;;19.60;8.02;;;;;;;6.31;100.00;100211.44;5069778;28;20037;-68
2024/01/05 03:54:49;;;;;;;15.02;6.65;;;;;;;6.32;100.00;100205.31;5069954;28;20028;-68
2024/01/05 03:57:14;;;;;;;12.98;6.20;;;;;;;6.27;100.00;100210.84;5070738;28;20032;-68
2024/01/05 03:59:42;;;;;;;17.73;6.90;;;;;;;6.22;100.00;100215.56;5069763;28;20048;-68
2024/01/05 04:02:08;;;;;;;13.18;6.05;;;;;;;6.21;100.00;100208.75;5070019;28;20098;-69
2024/01/05 04:04:33;;;;;;;12.70;5.60;;;;;;;6.21;100.00;100215.69;5068698;28;20036;-68
2024/01/05 04:06:59;;;;;;;17.88;6.72;;;;;;;6.22;100.00;100223.34;5070124;28;20111;-68
2024/01/05 04:09:24;;;;;;;16.13;6.55;;;;;;;6.31;100.00;100222.59;5072364;28;20434;-68
2024/01/05 04:11:51;;;;;;;16.00;6.07;;;;;;;6.36;100.00;100224.81;5070056;28;20032;-68
2024/01/05 04:14:17;;;;;;;14.25;6.80;;;;;;;6.39;100.00;100218.59;5070380;28;20028;-68
2024/01/05 04:16:42;;;;;;;22.20;7.18;;;;;;;6.45;100.00;100215.50;5069124;28;20029;-68
2024/01/05 04:19:08;;;;;;;16.08;6.35;;;;;;;6.48;100.00;100202.31;5069575;28;20127;-67
2024/01/05 04:21:34;;;;;;;14.80;5.57;;;;;;;6.48;100.00;100199.72;5068188;28;20036;-68
2024/01/05 04:23:59;;;;;;;13.77;6.10;;;;;;;6.43;100.00;100201.88;5069513;28;20028;-68
2024/01/05 04:26:25;;;;;;;14.15;7.07;;;;;;;6.40;100.00;100209.88;5069149;28;20028;-68
2024/01/05 04:28:51;;;;;;;18.23;6.75;;;;;;;6.40;100.00;100209.88;5071059;28;20032;-67
2024/01/05 04:31:16;;;;;;;13.68;5.18;;;;;;;6.43;100.00;100194.09;5068596;28;20086;-68
2024/01/05 04:33:42;;;;;;;13.20;5.93;;;;;;;6.47;100.00;100195.50;5069004;28;20071;-68
2024/01/05 04:36:08;;;;;;;13.73;5.80;;;;;;;6.57;100.00;100196.41;5067712;28;20032;-68
2024/01/05 04:38:34;;;;;;;18.92;6.40;;;;;;;6.65;100.00;100199.16;5069083;28;20043;-68
2024/01/05 04:41:00;;;;;;;15.23;6.57;;;;;;;6.72;100.00;100192.53;5072828;28;20119;-68
2024/01/05 04:43:26;;;;;;;14.75;6.32;;;;;;;6.72;100.00;100196.88;5068836;28;20135;-68
2024/01/05 04:45:51;;;;;;;14.98;6.22;;;;;;;6.73;100.00;100201.94;5069511;28;20040;-68
2024/01/05 04:48:17;;;;;;;15.25;6.32;;;;;;;6.72;100.00;100213.25;5069165;28;20040;-68
2024/01/05 04:50:42;;;;;;;12.48;6.15;;;;;;;6.64;100.00;100213.88;5069188;28;20028;-68
2024/01/05 04:53:08;;;;;;;12.88;4.50;;;;;;;6.60;100.00;100203.91;5067679;28;20051;-69
2024/01/05 04:55:33;;;;;;;15.65;5.13;;;;;;;6.59;100.00;100208.28;5070334;28;20036;-69
2024/01/05 04:57:59;;;;;;;14.73;6.38;;;;;;;6.64;100.00;100215.63;5068938;28;20032;-69
2024/01/05 05:00:24;;;;;;;15.55;6.47;;;;;;;6.66;100.00;100208.56;5069194;28;20072;-68
2024/01/05 05:02:49;;;;;;;11.93;5.47;;;;;;;6.60;100.00;100211.69;5069292;28;20051;-68
2024/01/05 05:05:15;;;;;;;15.77;6.55;;;;;;;6.65;100.00;100212.09;5069206;28;20036;-68
2024/01/05 05:07:40;;;;;;;15.60;6.70;;;;;;;6.65;100.00;100205.16;5068702;28;20389;-68
2024/01/05 05:10:07;;;;;;;21.05;7.63;;;;;;;6.67;100.00;100207.63;5066797;28;20128;-68
2024/01/05 05:12:33;;;;;;;16.13;6.40;;;;;;;6.60;100.00;100206.50;5068846;28;20142;-68
2024/01/05 05:14:59;;;;;;;17.85;6.22;;;;;;;6.61;100.00;100218.50;5070279;28;20024;-68
2024/01/05 05:17:24;;;;;;;18.17;6.43;;;;;;;6.59;100.00;100221.22;5067924;28;20111;-68
2024/01/05 05:19:54;;;;;;;19.27;5.65;;;;;;;6.66;100.00;100211.16;5068762;28;20462;-68
2024/01/05 05:22:20;;;;;;;17.42;5.82;;;;;;;6.79;100.00;100210.97;5069179;28;20047;-68
2024/01/05 05:24:45;;;;;;;12.45;4.90;;;;;;;6.79;100.00;100216.97;5066927;28;20093;-69
2024/01/05 05:27:11;;;;;;;13.98;5.85;;;;;;;6.82;100.00;100221.91;5068693;28;20371;-67
2024/01/05 05:29:36;;;;;;;12.00;5.28;;;;;;;6.82;100.00;100221.91;5068820;28;20051;-68
2024/01/05 05:32:02;;;;;;;13.63;4.97;;;;;;;6.77;100.00;100208.50;5068480;28;20049;-68
2024/01/05 05:34:27;;;;;;;12.45;4.80;;;;;;;6.72;100.00;100209.81;5065168;28;20119;-68
2024/01/05 05:36:53;;;;;;;12.48;5.82;;;;;;;6.68;100.00;100203.25;5062383;28;20679;-68
2024/01/05 05:39:18;;;;;;;16.33;5.00;;;;;;;6.70;100.00;100209.13;5068182;28;20028;-68
2024/01/05 05:41:44;;;;;;;14.52;5.60;;;;;;;6.72;100.00;100204.66;5065542;28;20111;-68
2024/01/05 05:44:09;;;;;;;10.32;4.38;;;;;;;6.78;100.00;100215.31;5068465;28;20837;-68
2024/01/05 05:46:35;;;;;;;13.40;5.40;;;;;;;6.77;100.00;100213.69;5069847;28;20515;-68
2024/01/05 05:49:00;;;;;;;15.02;5.13;;;;;;;6.77;100.00;100211.09;5069748;28;20064;-68
2024/01/05 05:51:26;;;;;;;10.20;4.53;;;;;;;6.79;100.00;100213.56;5068272;28;20064;-68
2024/01/05 05:53:51;;;;;;;16.77;5.20;;;;;;;6.79;100.00;100224.75;5068280;28;20036;-68
2024/01/05 05:56:18;;;;;;;13.13;4.70;;;;;;;6.81;100.00;100215.06;5063706;28;20699;-68
2024/01/05 05:58:44;;;;;;;10.48;4.82;;;;;;;6.88;100.00;100213.63;5065627;28;20032;-68
2024/01/05 06:01:12;;;;;;;12.85;4.70;;;;;;;6.92;100.00;100216.78;5068683;28;20040;-68
2024/01/05 06:03:38;;;;;;;12.55;5.00;;;;;;;6.89;100.00;100212.69;5068224;28;20028;-68
2024/01/05 06:06:05;;;;;;;9.27;3.72;;;;;;;6.88;100.00;100211.03;5067985;28;20039;-68
2024/01/05 06:08:30;;;;;;;13.70;3.92;;;;;;;6.91;100.00;100215.16;5084781;28;20725;-68
2024/01/05 06:10:56;;;;;;;12.18;3.60;;;;;;;6.86;100.00;100215.53;5070619;28;20029;-68
2024/01/05 06:13:21;;;;;;;9.02;3.50;;;;;;;6.82;100.00;100208.13;5071888;28;20032;-68
2024/01/05 06:15:47;;;;;;;9.48;4.40;;;;;;;6.78;100.00;100207.56;5072328;28;20028;-68
2024/01/05 06:18:12;;;;;;;11.38;4.93;;;;;;;6.76;100.00;100214.63;5074540;28;20036;-68
2024/01/05 06:20:38;;;;;;;8.30;3.60;;;;;;;6.78;100.00;100224.88;5071975;28;20028;-68
2024/01/05 06:23:03;;;;;;;7.32;4.25;;;;;;;6.77;100.00;100229.22;5072728;28;20038;-68
2024/01/05 06:25:28;;;;;;;9.07;4.53;;;;;;;6.83;100.00;100230.50;5072115;28;20025;-68
2024/01/05 06:27:54;;;;;;;18.77;4.60;;;;;;;6.81;100.00;100219.44;5072919;28;20032;-69
2024/01/05 06:30:19;;;;;;;10.27;4.05;;;;;;;6.79;100.00;100219.56;5069556;28;20120;-68
2024/01/05 06:32:45;;;;;;;14.80;6.10;;;;;;;6.81;100.00;100211.66;5071230;28;20047;-68
2024/01/05 06:35:12;;;;;;;9.18;4.07;;;;;;;6.80;100.00;100208.25;5072153;28;20040;-68
2024/01/05 06:37:37;;;;;;;7.82;3.50;;;;;;;6.77;100.00;100207.69;5066631;28;20036;-68
2024/01/05 06:40:03;;;;;;;9.25;3.63;;;;;;;6.75;100.00;100199.22;5073665;28;20355;-68
2024/01/05 06:42:28;;;;;;;11.52;4.43;;;;;;;6.71;100.00;100201.25;5076619;28;20176;-68
2024/01/05 06:44:54;;;;;;;8.57;3.72;;;;;;;6.71;100.00;100198.66;5071061;28;20044;-69
2024/01/05 06:47:19;;;;;;;11.82;4.15;;;;;;;6.72;100.00;100204.66;5072020;28;20032;-68
2024/01/05 06:49:45;;;;;;;10.02;4.18;;;;;;;6.73;100.00;100199.34;5072043;28;20043;-68
2024/01/05 06:52:10;;;;;;;9.35;3.78;;;;;;;6.73;100.00;100201.13;5072423;28;20033;-68
2024/01/05 06:54:36;;;;;;;10.30;3.47;;;;;;;6.76;100.00;100201.69;5069494;28;20105;-68
2024/01/05 06:57:02;;;;;;;10.20;4.50;;;;;;;6.76;100.00;100203.47;5073874;28;20129;-68
2024/01/05 06:59:30;;;;;;;10.15;3.20;;;;;;;6.76;100.00;100204.28;5068731;28;20134;-68
2024/01/05 07:01:56;;;;;;;11.00;4.03;;;;;;;6.75;100.00;100200.03;5070464;28;20111;-68
2024/01/05 07:04:23;;;;;;;7.75;3.22;;;;;;;6.77;100.00;100211.09;5072026;28;20032;-68
2024/01/05 07:06:48;;;;;;;9.63;3.55;;;;;;;6.78;100.00;100209.31;5067032;28;20025;-68
2024/01/05 07:09:14;;;;;;;7.60;4.25;;;;;;;6.74;100.00;100208.75;5071917;28;20047;-68
2024/01/05 07:11:39;;;;;;;12.93;4.43;;;;;;;6.69;100.00;100202.31;5072555;28;20024;-68
2024/01/05 07:14:05;;;;;;;9.30;3.70;;;;;;;6.71;100.00;100203.84;5075590;28;20504;-68
2024/01/05 07:16:30;;;;;;;6.85;3.58;;;;;;;6.77;100.00;100195.56;5071173;28;20523;-68
2024/01/05 07:18:56;;;;;;;9.35;4.00;;;;;;;6.79;100.00;100206.63;5070303;28;20020;-69
2024/01/05 07:21:21;;;;;;;8.57;3.55;;;;;;;6.75;100.00;100207.81;5071528;28;20040;-68
2024/01/05 07:23:47;;;;;;;7.15;3.22;;;;;;;6.73;100.00;100211.47;5070625;28;20438;-68
2024/01/05 07:26:12;;;;;;;9.52;3.20;;;;;;;6.75;100.00;100212.16;5071790;28;20111;-68
2024/01/05 07:28:38;;;;;;;7.50;2.90;;;;;;;6.75;100.00;100210.41;5072787;28;20028;-68
2024/01/05 07:31:09;;;;;;;10.32;3.15;;;;;;;6.76;100.00;100211.22;5071744;28;20444;-68
2024/01/05 07:33:35;;;;;;;7.15;2.88;;;;;;;6.76;100.00;100212.03;5066997;28;20086;-68
2024/01/05 07:36:04;;;;;;;8.07;3.20;;;;;;;6.76;100.00;100214.63;5071418;28;20029;-68
2024/01/05 07:38:31;;;;;;;10.48;3.78;;;;;;;6.80;100.00;100216.03;5070841;28;20033;-69
2024/01/05 07:40:57;;;;;;;8.80;3.45;;;;;;;6.83;100.00;100208.00;5071014;28;20021;-68
2024/01/05 07:43:22;;;;;;;9.15;3.50;;;;;;;6.90;100.00;100197.97;5069591;28;20155;-68
2024/01/05 07:45:48;;;;;;;8.65;3.60;;;;;;;6.93;100.00;100211.47;5069798;28;20107;-69
2024/01/05 07:48:13;;;;;;;9.15;2.75;;;;;;;6.94;100.00;100212.31;5069088;28;20046;-69
2024/01/05 07:50:39;;;;;;;11.43;4.28;;;;;;;6.97;100.00;100215.47;5067330;28;20024;-68
2024/01/05 07:53:04;;;;;;;7.97;2.97;;;;;;;7.02;100.00;100209.06;5070604;28;20044;-69
2024/01/05 07:55:29;;;;;;;7.30;3.30;;;;;;;7.03;100.00;100213.31;5068724;28;20074;-68
2024/01/05 07:57:55;;;;;;;10.32;3.55;;;;;;;7.05;100.00;100204.47;5070059;28;20240;-69
2024/01/05 08:00:21;;;;;;;6.55;2.85;;;;;;;7.08;100.00;100208.56;5069140;28;20474;-68
2024/01/05 08:02:48;;;;;;;10.43;3.25;;;;;;;7.09;100.00;100208.41;5070880;28;20562;-68
2024/01/05 08:05:14;;;;;;;9.15;3.60;;;;;;;7.09;100.00;100202.44;5070658;28;20040;-69
2024/01/05 08:07:40;;;;;;;7.50;3.78;;;;;;;7.15;100.00;100207.91;5063477;28;20085;-68
2024/01/05 08:10:07;;;;;;;8.30;3.50;;;;;;;7.27;100.00;100208.66;5069844;28;20513;-68
2024/01/05 08:12:32;;;;;;;8.88;3.15;;;;;;;7.36;99.73;100213.06;5065237;28;20028;-68
2024/01/05 08:14:58;;;;;;;15.10;2.80;;;;;;;7.46;99.44;100224.28;5067013;28;20419;-68
2024/01/05 08:17:23;;;;;;;9.88;3.88;;;;;;;7.53;99.37;100206.44;5069244;28;20932;-68
2024/01/05 08:19:49;;;;;;;9.10;3.00;;;;;;;7.56;99.16;100201.78;5068308;28;20032;-68
2024/01/05 08:22:14;;;;;;;14.98;3.03;;;;;;;7.60;99.24;100217.91;5070015;28;20040;-68
2024/01/05 08:24:39;;;;;;;7.20;3.47;;;;;;;7.62;98.45;100206.44;5063100;28;20036;-68
2024/01/05 08:27:05;;;;;;;12.23;3.42;;;;;;;7.67;98.00;100200.88;5064063;28;20090;-68
2024/01/05 08:29:30;;;;;;;10.70;3.92;;;;;;;7.73;98.24;100202.94;5069152;28;20028;-68
2024/01/05 08:31:58;;;;;;;15.80;2.95;;;;;;;7.82;96.74;100193.56;5069096;28;20137;-68
2024/01/05 08:34:24;;;;;;;7.90;2.97;;;;;;;7.89;97.13;100199.84;5066705;28;20488;-68
2024/01/05 08:36:49;;;;;;;9.68;3.45;;;;;;;7.95;96.66;100191.53;5069966;28;20036;-68
2024/01/05 08:39:15;;;;;;;8.93;3.42;;;;;;;7.99;96.93;100190.31;5069506;28;20090;-68
2024/01/05 08:41:42;;;;;;;6.70;3.17;;;;;;;8.05;97.28;100194.13;5069056;28;20078;-68
2024/01/05 08:44:07;;;;;;;10.73;3.70;;;;;;;8.08;96.46;100186.88;5069089;28;20245;-68
2024/01/05 08:46:33;;;;;;;9.85;2.60;;;;;;;8.12;96.43;100187.44;5069185;28;20035;-68
2024/01/05 08:48:58;;;;;;;9.50;3.22;;;;;;;8.14;96.55;100188.94;5072873;28;20512;-68
2024/01/05 08:51:24;;;;;;;7.22;2.97;;;;;;;8.14;95.20;100185.53;5069751;28;20039;-68
2024/01/05 08:53:49;;;;;;;9.68;2.97;;;;;;;8.15;96.08;100179.38;5069733;28;20036;-68
2024/01/05 08:56:15;;;;;;;12.15;3.88;;;;;;;8.15;94.89;100172.41;5069410;28;20097;-69
2024/01/05 08:58:40;;;;;;;9.52;3.40;;;;;;;8.14;95.68;100168.19;5069374;28;20044;-69
2024/01/05 09:01:06;;;;;;;9.50;3.10;;;;;;;8.20;96.22;100159.03;5065977;28;21408;-68
2024/01/05 09:03:32;;;;;;;13.50;3.10;;;;;;;8.28;96.24;100156.56;5065169;28;20119;-69
2024/01/05 09:05:57;;;;;;;9.13;2.90;;;;;;;8.36;94.56;100168.91;5067206;28;20504;-68
2024/01/05 09:08:23;;;;;;;9.93;3.17;;;;;;;8.38;96.72;100172.19;5067978;28;20207;-68
2024/01/05 09:10:49;;;;;;;10.60;3.80;;;;;;;8.44;95.84;100174.22;5066499;28;20096;-68
2024/01/05 09:13:14;;;;;;;8.23;3.45;;;;;;;8.52;95.60;100172.56;5066666;28;20637;-68
2024/01/05 09:15:40;;;;;;;7.97;2.85;;;;;;;8.57;94.97;100159.16;5064666;28;20032;-69
2024/01/05 09:18:05;;;;;;;10.88;3.03;;;;;;;8.64;93.42;100162.84;5069035;28;20086;-68
2024/01/05 09:20:31;;;;;;;8.90;2.88;;;;;;;8.74;94.51;100166.25;5062296;28;20077;-69
2024/01/05 09:22:56;;;;;;;10.98;2.97;;;;;;;8.75;94.26;100164.47;5078319;28;20027;-68
2024/01/05 09:25:22;;;;;;;7.47;3.05;;;;;;;8.79;94.07;100165.84;5068188;28;20040;-68
2024/01/05 09:27:47;;;;;;;7.50;2.67;;;;;;;8.82;94.80;100171.56;5063004;28;20063;-70
2024/01/05 09:30:13;;;;;;;6.20;2.95;;;;;;;8.78;96.34;100172.81;5067458;28;20037;-70
2024/01/05 09:32:39;;;;;;;6.35;2.50;;;;;;;8.82;95.73;100171.56;5067460;28;20480;-70
2024/01/05 09:35:05;;;;;;;6.20;2.72;;;;;;;9.00;96.02;100171.66;5066199;28;20024;-70
2024/01/05 09:37:30;;;;;;;7.85;2.65;;;;;;;9.13;95.42;100168.72;5066326;28;20039;-70
2024/01/05 09:39:55;;;;;;;7.30;2.88;;;;;;;9.26;94.92;100171.84;5065330;28;20024;-70
2024/01/05 09:42:22;;;;;;;7.05;2.88;;;;;;;9.34;97.06;100169.34;5064677;28;20489;-70
2024/01/05 09:44:48;;;;;;;7.60;2.60;;;;;;;9.40;94.94;100162.75;5062541;28;20025;-70
2024/01/05 09:47:14;;;;;;;8.20;2.33;;;;;;;9.55;95.47;100161.28;5067169;28;20032;-70
2024/01/05 09:49:44;;;;;;;8.63;2.28;;;;;;;9.65;95.12;100160.28;5063190;28;20024;-67
2024/01/05 09:52:12;;;;;;;12.98;2.65;;;;;;;9.70;96.12;100156.41;5067520;28;20032;-67
2024/01/05 09:54:38;;;;;;;7.43;2.50;;;;;;;9.75;94.98;100149.81;5069747;28;20482;-67
2024/01/05 09:57:05;;;;;;;9.35;3.05;;;;;;;9.77;94.55;100149.66;5068544;28;20098;-68
2024/01/05 09:59:31;;;;;;;8.20;2.70;;;;;;;9.83;93.18;100147.31;5068595;28;20028;-67
2024/01/05 10:02:04;;;;;;;8.20;1.95;;;;;;;9.89;93.74;100146.72;5065537;28;20041;-67
2024/01/05 10:04:30;;;;;;;8.40;2.53;;;;;;;9.95;95.08;100143.50;5067210;28;20172;-67
2024/01/05 10:07:00;;;;;;;8.32;2.33;;;;;;;10.08;94.25;100140.53;5065587;28;20036;-67
2024/01/05 10:09:28;;;;;;;10.10;2.50;;;;;;;10.12;93.42;100147.06;5066581;28;20032;-68
2024/01/05 10:11:54;;;;;;;5.60;1.98;;;;;;;10.19;93.25;100144.69;5065028;28;20028;-67
2024/01/05 10:14:24;;;;;;;6.35;2.00;;;;;;;10.23;93.79;100139.06;5064902;28;20546;-68
2024/01/05 10:16:50;;;;;;;5.65;2.15;;;;;;;10.41;90.27;100135.59;5069764;28;20461;-67
2024/01/05 10:19:17;;;;;;;4.40;1.45;;;;;;;10.65;90.83;100125.38;5068632;28;20059;-67
2024/01/05 10:21:47;;;;;;;5.53;1.45;;;;;;;10.68;89.70;100125.06;5065890;28;20043;-67
2024/01/05 10:24:21;;;;;;;5.50;2.13;;;;;;;10.60;91.02;100128.44;5065529;28;20021;-67
2024/01/05 10:26:59;;;;;;;4.05;1.73;;;;;;;10.57;89.08;100114.91;5066086;28;20041;-67
2024/01/05 10:29:25;;;;;;;13.05;2.70;;;;;;;10.64;91.23;100111.53;5064403;28;20090;-67
2024/01/05 10:31:50;;;;;;;8.35;2.50;;;;;;;10.75;90.45;100109.66;5067958;28;20040;-67
2024/01/05 10:34:15;;;;;;;6.95;2.50;;;;;;;10.85;89.83;100103.34;5067962;28;20461;-67
2024/01/05 10:36:41;;;;;;;11.57;2.10;;;;;;;10.97;89.85;100107.31;5066328;28;20119;-67
2024/01/05 10:39:08;;;;;;;5.22;1.77;;;;;;;11.01;85.95;100091.34;5071560;28;20035;-67
2024/01/05 10:41:35;;;;;;;3.47;1.88;;;;;;;11.01;88.39;100092.16;5067923;28;20044;-67
2024/01/05 10:44:02;;;;;;;5.97;2.00;;;;;;;10.96;86.59;100090.03;5066515;28;20056;-67
2024/01/05 10:46:30;;;;;;;4.55;2.15;;;;;;;10.93;89.83;100085.13;5067515;28;20032;-67
2024/01/05 10:48:56;;;;;;;6.55;2.05;;;;;;;10.92;89.14;100077.47;5068479;28;20020;-69
2024/01/05 10:51:25;;;;;;;7.65;2.58;;;;;;;10.86;90.45;100076.31;5068088;28;20481;-68
2024/01/05 10:53:51;;;;;;;6.40;2.25;;;;;;;10.81;89.17;100065.53;5067837;28;20101;-67
2024/01/05 10:56:19;;;;;;;7.88;2.08;;;;;;;11.02;86.40;100074.75;5068862;28;20036;-68
2024/01/05 10:58:48;;;;;;;10.05;1.85;;;;;;;11.09;89.56;100060.94;5071121;28;20033;-68
2024/01/05 11:01:17;;;;;;;16.30;2.88;;;;;;;11.05;88.53;100071.81;5067168;28;20521;-68
2024/01/05 11:03:44;;;;;;;9.10;2.45;;;;;;;11.00;89.16;100074.06;5070599;28;20569;-68
2024/01/05 11:06:12;;;;;;;9.02;2.65;;;;;;;10.88;88.01;100063.91;5072080;28;20374;-68
2024/01/05 11:09:09;;;;;;;6.78;2.10;;;;;;;10.84;88.80;100060.03;5070749;28;20041;-67
2024/01/05 11:12:09;;;;;;;10.48;2.45;;;;;;;10.76;85.81;100057.38;5025574;28;20140;-68
2024/01/05 11:14:37;;;;;;;7.63;2.58;;;;;;;10.71;88.27;100062.22;5070972;28;20401;-68
2024/01/05 11:17:11;;;;;;;9.75;2.00;;;;;;;10.62;87.75;100060.56;5069586;28;20166;-68